sensor_id;sensor_type;location;lat;lon;timestamp;P1;durP1;ratioP1;P2;durP2;ratioP2
2710;SDS011;20721;47.402;8.550;2023-03-04T00:00:52;47.58;;;45.24;;
2710;SDS011;20721;47.402;8.550;2023-03-04T00:01:47;48.13;;;46.01;;
2710;SDS011;20721;47.402;8.550;2023-03-04T00:02:47;49.37;;;46.51;;
2710;SDS011;20721;47.402;8.550;2023-03-04T00:03:49;46.92;;;44.67;;
2710;SDS011;20721;47.402;8.550;2023-03-04T00:04:47;48.00;;;45.75;;
2710;SDS011;20721;47.402;8.550;2023-03-04T00:08:47;46.90;;;44.29;;
2710;SDS011;20721;47.402;8.550;2023-03-04T00:09:47;49.66;;;46.84;;
2710;SDS011;20721;47.402;8.550;2023-03-04T00:13:47;49.98;;;46.92;;
2710;SDS011;20721;47.402;8.550;2023-03-04T00:14:47;47.09;;;44.37;;
2710;SDS011;20721;47.402;8.550;2023-03-04T00:15:47;45.96;;;43.63;;
2710;SDS011;20721;47.402;8.550;2023-03-04T00:16:47;47.89;;;45.77;;
2710;SDS011;20721;47.402;8.550;2023-03-04T00:17:47;48.90;;;46.09;;
2710;SDS011;20721;47.402;8.550;2023-03-04T00:20:47;47.23;;;44.57;;
2710;SDS011;20721;47.402;8.550;2023-03-04T00:23:47;45.82;;;43.64;;
2710;SDS011;20721;47.402;8.550;2023-03-04T00:24:47;47.08;;;44.75;;
2710;SDS011;20721;47.402;8.550;2023-03-04T00:25:47;46.88;;;44.35;;
2710;SDS011;20721;47.402;8.550;2023-03-04T00:26:47;46.24;;;44.39;;
2710;SDS011;20721;47.402;8.550;2023-03-04T00:27:47;46.07;;;43.54;;
2710;SDS011;20721;47.402;8.550;2023-03-04T00:28:48;47.55;;;45.39;;
2710;SDS011;20721;47.402;8.550;2023-03-04T00:29:47;47.49;;;45.22;;
2710;SDS011;20721;47.402;8.550;2023-03-04T00:30:47;47.63;;;45.96;;
2710;SDS011;20721;47.402;8.550;2023-03-04T00:31:47;48.48;;;46.36;;
2710;SDS011;20721;47.402;8.550;2023-03-04T00:33:47;45.43;;;43.76;;
2710;SDS011;20721;47.402;8.550;2023-03-04T00:35:47;46.81;;;45.11;;
2710;SDS011;20721;47.402;8.550;2023-03-04T00:36:47;47.56;;;46.14;;
2710;SDS011;20721;47.402;8.550;2023-03-04T00:37:47;49.00;;;46.23;;
2710;SDS011;20721;47.402;8.550;2023-03-04T00:38:47;49.61;;;46.77;;
2710;SDS011;20721;47.402;8.550;2023-03-04T00:39:47;47.74;;;45.28;;
2710;SDS011;20721;47.402;8.550;2023-03-04T00:40:47;49.50;;;47.08;;
2710;SDS011;20721;47.402;8.550;2023-03-04T00:41:47;50.40;;;47.16;;
2710;SDS011;20721;47.402;8.550;2023-03-04T00:42:47;49.63;;;46.78;;
2710;SDS011;20721;47.402;8.550;2023-03-04T00:43:47;46.66;;;44.35;;
2710;SDS011;20721;47.402;8.550;2023-03-04T00:44:47;49.49;;;47.01;;
2710;SDS011;20721;47.402;8.550;2023-03-04T00:45:47;48.78;;;45.57;;
2710;SDS011;20721;47.402;8.550;2023-03-04T00:46:47;51.47;;;48.77;;
2710;SDS011;20721;47.402;8.550;2023-03-04T00:47:48;50.00;;;46.99;;
2710;SDS011;20721;47.402;8.550;2023-03-04T00:48:47;49.31;;;46.63;;
2710;SDS011;20721;47.402;8.550;2023-03-04T00:49:47;47.00;;;45.18;;
2710;SDS011;20721;47.402;8.550;2023-03-04T00:50:47;49.89;;;46.82;;
2710;SDS011;20721;47.402;8.550;2023-03-04T00:51:47;49.77;;;46.60;;
2710;SDS011;20721;47.402;8.550;2023-03-04T00:52:47;49.70;;;47.06;;
2710;SDS011;20721;47.402;8.550;2023-03-04T00:54:47;49.87;;;46.60;;
2710;SDS011;20721;47.402;8.550;2023-03-04T00:56:47;52.35;;;48.60;;
2710;SDS011;20721;47.402;8.550;2023-03-04T00:57:47;48.32;;;45.68;;
2710;SDS011;20721;47.402;8.550;2023-03-04T00:58:49;48.05;;;46.19;;
2710;SDS011;20721;47.402;8.550;2023-03-04T00:59:47;49.28;;;47.17;;
2710;SDS011;20721;47.402;8.550;2023-03-04T01:00:47;49.74;;;46.30;;
2710;SDS011;20721;47.402;8.550;2023-03-04T01:01:47;49.87;;;46.50;;
2710;SDS011;20721;47.402;8.550;2023-03-04T01:02:47;49.70;;;47.10;;
2710;SDS011;20721;47.402;8.550;2023-03-04T01:03:50;49.39;;;47.05;;
2710;SDS011;20721;47.402;8.550;2023-03-04T01:05:47;48.33;;;46.08;;
2710;SDS011;20721;47.402;8.550;2023-03-04T01:06:47;52.77;;;49.18;;
2710;SDS011;20721;47.402;8.550;2023-03-04T01:07:47;48.71;;;46.35;;
2710;SDS011;20721;47.402;8.550;2023-03-04T01:08:47;47.95;;;45.38;;
2710;SDS011;20721;47.402;8.550;2023-03-04T01:09:47;50.43;;;46.81;;
2710;SDS011;20721;47.402;8.550;2023-03-04T01:11:47;52.98;;;49.68;;
2710;SDS011;20721;47.402;8.550;2023-03-04T01:12:49;52.04;;;49.10;;
2710;SDS011;20721;47.402;8.550;2023-03-04T01:14:47;50.90;;;46.88;;
2710;SDS011;20721;47.402;8.550;2023-03-04T01:15:47;50.41;;;47.43;;
2710;SDS011;20721;47.402;8.550;2023-03-04T01:19:47;51.91;;;48.95;;
2710;SDS011;20721;47.402;8.550;2023-03-04T01:20:47;52.65;;;49.45;;
2710;SDS011;20721;47.402;8.550;2023-03-04T01:21:47;51.56;;;48.91;;
2710;SDS011;20721;47.402;8.550;2023-03-04T01:22:47;48.53;;;46.38;;
2710;SDS011;20721;47.402;8.550;2023-03-04T01:23:47;49.61;;;46.56;;
2710;SDS011;20721;47.402;8.550;2023-03-04T01:24:47;50.93;;;48.19;;
2710;SDS011;20721;47.402;8.550;2023-03-04T01:25:47;48.94;;;46.57;;
2710;SDS011;20721;47.402;8.550;2023-03-04T01:26:47;51.03;;;47.97;;
2710;SDS011;20721;47.402;8.550;2023-03-04T01:27:47;51.72;;;48.38;;
2710;SDS011;20721;47.402;8.550;2023-03-04T01:28:47;49.71;;;47.56;;
2710;SDS011;20721;47.402;8.550;2023-03-04T01:29:47;48.81;;;46.57;;
2710;SDS011;20721;47.402;8.550;2023-03-04T01:30:47;50.72;;;48.06;;
2710;SDS011;20721;47.402;8.550;2023-03-04T01:31:47;50.63;;;48.65;;
2710;SDS011;20721;47.402;8.550;2023-03-04T01:32:47;48.88;;;46.18;;
2710;SDS011;20721;47.402;8.550;2023-03-04T01:33:47;50.48;;;48.01;;
2710;SDS011;20721;47.402;8.550;2023-03-04T01:35:47;50.03;;;47.31;;
2710;SDS011;20721;47.402;8.550;2023-03-04T01:36:47;48.59;;;46.96;;
2710;SDS011;20721;47.402;8.550;2023-03-04T01:37:47;48.81;;;46.66;;
2710;SDS011;20721;47.402;8.550;2023-03-04T01:38:47;50.20;;;47.38;;
2710;SDS011;20721;47.402;8.550;2023-03-04T01:39:47;52.63;;;49.34;;
2710;SDS011;20721;47.402;8.550;2023-03-04T01:40:47;49.72;;;47.72;;
2710;SDS011;20721;47.402;8.550;2023-03-04T01:41:47;52.09;;;48.94;;
2710;SDS011;20721;47.402;8.550;2023-03-04T01:42:47;50.96;;;48.42;;
2710;SDS011;20721;47.402;8.550;2023-03-04T01:43:48;52.67;;;49.57;;
2710;SDS011;20721;47.402;8.550;2023-03-04T01:44:47;55.27;;;51.52;;
2710;SDS011;20721;47.402;8.550;2023-03-04T01:45:50;51.91;;;48.88;;
2710;SDS011;20721;47.402;8.550;2023-03-04T01:46:51;54.00;;;50.25;;
2710;SDS011;20721;47.402;8.550;2023-03-04T01:47:47;52.05;;;49.07;;
2710;SDS011;20721;47.402;8.550;2023-03-04T01:48:48;52.06;;;49.69;;
2710;SDS011;20721;47.402;8.550;2023-03-04T01:49:48;51.38;;;48.75;;
2710;SDS011;20721;47.402;8.550;2023-03-04T01:50:47;51.96;;;49.48;;
2710;SDS011;20721;47.402;8.550;2023-03-04T01:51:48;52.55;;;50.06;;
2710;SDS011;20721;47.402;8.550;2023-03-04T01:53:48;52.37;;;50.53;;
2710;SDS011;20721;47.402;8.550;2023-03-04T01:54:48;51.56;;;49.72;;
2710;SDS011;20721;47.402;8.550;2023-03-04T01:55:47;52.52;;;49.48;;
2710;SDS011;20721;47.402;8.550;2023-03-04T01:56:49;54.18;;;51.63;;
2710;SDS011;20721;47.402;8.550;2023-03-04T01:59:52;50.38;;;48.21;;
2710;SDS011;20721;47.402;8.550;2023-03-04T02:00:48;50.94;;;49.19;;
2710;SDS011;20721;47.402;8.550;2023-03-04T02:01:49;51.82;;;49.11;;
2710;SDS011;20721;47.402;8.550;2023-03-04T02:02:48;53.66;;;50.57;;
2710;SDS011;20721;47.402;8.550;2023-03-04T02:03:47;54.47;;;51.10;;
2710;SDS011;20721;47.402;8.550;2023-03-04T02:04:48;53.46;;;50.29;;
2710;SDS011;20721;47.402;8.550;2023-03-04T02:05:50;53.79;;;51.25;;
2710;SDS011;20721;47.402;8.550;2023-03-04T02:06:49;54.15;;;51.55;;
2710;SDS011;20721;47.402;8.550;2023-03-04T02:07:48;52.67;;;50.47;;
2710;SDS011;20721;47.402;8.550;2023-03-04T02:08:47;53.85;;;50.02;;
2710;SDS011;20721;47.402;8.550;2023-03-04T02:09:47;54.44;;;51.72;;
2710;SDS011;20721;47.402;8.550;2023-03-04T02:10:48;52.29;;;49.34;;
2710;SDS011;20721;47.402;8.550;2023-03-04T02:11:48;53.55;;;50.51;;
2710;SDS011;20721;47.402;8.550;2023-03-04T02:12:48;54.81;;;52.35;;
2710;SDS011;20721;47.402;8.550;2023-03-04T02:13:47;56.96;;;53.91;;
2710;SDS011;20721;47.402;8.550;2023-03-04T02:14:47;55.63;;;52.30;;
2710;SDS011;20721;47.402;8.550;2023-03-04T02:15:47;54.51;;;51.69;;
2710;SDS011;20721;47.402;8.550;2023-03-04T02:16:48;55.06;;;51.81;;
2710;SDS011;20721;47.402;8.550;2023-03-04T02:17:48;54.51;;;51.65;;
2710;SDS011;20721;47.402;8.550;2023-03-04T02:18:47;54.58;;;52.75;;
2710;SDS011;20721;47.402;8.550;2023-03-04T02:19:54;56.10;;;52.43;;
2710;SDS011;20721;47.402;8.550;2023-03-04T02:21:02;53.69;;;50.54;;
2710;SDS011;20721;47.402;8.550;2023-03-04T02:21:47;54.66;;;51.31;;
2710;SDS011;20721;47.402;8.550;2023-03-04T02:22:54;53.30;;;50.62;;
2710;SDS011;20721;47.402;8.550;2023-03-04T02:23:51;52.94;;;51.21;;
2710;SDS011;20721;47.402;8.550;2023-03-04T02:24:53;52.68;;;50.49;;
2710;SDS011;20721;47.402;8.550;2023-03-04T02:26:06;52.95;;;50.79;;
2710;SDS011;20721;47.402;8.550;2023-03-04T02:26:51;54.65;;;51.69;;
2710;SDS011;20721;47.402;8.550;2023-03-04T02:27:47;54.74;;;52.01;;
2710;SDS011;20721;47.402;8.550;2023-03-04T02:28:48;52.73;;;50.67;;
2710;SDS011;20721;47.402;8.550;2023-03-04T02:29:47;56.76;;;53.32;;
2710;SDS011;20721;47.402;8.550;2023-03-04T02:31:50;53.05;;;50.33;;
2710;SDS011;20721;47.402;8.550;2023-03-04T02:32:47;55.41;;;52.00;;
2710;SDS011;20721;47.402;8.550;2023-03-04T02:33:47;52.66;;;50.39;;
2710;SDS011;20721;47.402;8.550;2023-03-04T02:34:49;52.91;;;49.90;;
2710;SDS011;20721;47.402;8.550;2023-03-04T02:35:47;51.05;;;48.97;;
2710;SDS011;20721;47.402;8.550;2023-03-04T02:36:49;54.26;;;51.30;;
2710;SDS011;20721;47.402;8.550;2023-03-04T02:37:47;53.15;;;50.40;;
2710;SDS011;20721;47.402;8.550;2023-03-04T02:38:48;53.29;;;50.53;;
2710;SDS011;20721;47.402;8.550;2023-03-04T02:39:50;53.87;;;51.35;;
2710;SDS011;20721;47.402;8.550;2023-03-04T02:41:48;55.98;;;52.27;;
2710;SDS011;20721;47.402;8.550;2023-03-04T02:42:47;54.07;;;52.20;;
2710;SDS011;20721;47.402;8.550;2023-03-04T02:45:56;55.07;;;52.35;;
2710;SDS011;20721;47.402;8.550;2023-03-04T02:46:48;54.49;;;52.00;;
2710;SDS011;20721;47.402;8.550;2023-03-04T02:47:47;54.24;;;51.86;;
2710;SDS011;20721;47.402;8.550;2023-03-04T02:49:48;53.57;;;51.29;;
2710;SDS011;20721;47.402;8.550;2023-03-04T02:50:50;53.05;;;50.81;;
2710;SDS011;20721;47.402;8.550;2023-03-04T02:51:50;54.68;;;52.25;;
2710;SDS011;20721;47.402;8.550;2023-03-04T02:52:47;52.59;;;50.70;;
2710;SDS011;20721;47.402;8.550;2023-03-04T02:53:47;53.94;;;50.59;;
2710;SDS011;20721;47.402;8.550;2023-03-04T02:54:47;56.99;;;53.72;;
2710;SDS011;20721;47.402;8.550;2023-03-04T02:55:47;51.57;;;49.84;;
2710;SDS011;20721;47.402;8.550;2023-03-04T02:56:48;51.92;;;49.36;;
2710;SDS011;20721;47.402;8.550;2023-03-04T02:57:47;52.97;;;50.51;;
2710;SDS011;20721;47.402;8.550;2023-03-04T02:58:47;52.03;;;50.05;;
2710;SDS011;20721;47.402;8.550;2023-03-04T02:59:48;52.28;;;50.24;;
2710;SDS011;20721;47.402;8.550;2023-03-04T03:00:48;51.31;;;49.48;;
2710;SDS011;20721;47.402;8.550;2023-03-04T03:01:47;52.61;;;50.30;;
2710;SDS011;20721;47.402;8.550;2023-03-04T03:02:48;53.11;;;51.44;;
2710;SDS011;20721;47.402;8.550;2023-03-04T03:03:47;50.79;;;49.53;;
2710;SDS011;20721;47.402;8.550;2023-03-04T03:05:48;52.45;;;50.36;;
2710;SDS011;20721;47.402;8.550;2023-03-04T03:06:48;51.46;;;49.18;;
2710;SDS011;20721;47.402;8.550;2023-03-04T03:07:47;52.88;;;50.89;;
2710;SDS011;20721;47.402;8.550;2023-03-04T03:09:47;52.03;;;49.74;;
2710;SDS011;20721;47.402;8.550;2023-03-04T03:10:47;54.08;;;51.67;;
2710;SDS011;20721;47.402;8.550;2023-03-04T03:11:47;53.90;;;51.32;;
2710;SDS011;20721;47.402;8.550;2023-03-04T03:12:47;54.11;;;51.93;;
2710;SDS011;20721;47.402;8.550;2023-03-04T03:14:47;55.19;;;52.64;;
2710;SDS011;20721;47.402;8.550;2023-03-04T03:15:51;52.78;;;50.28;;
2710;SDS011;20721;47.402;8.550;2023-03-04T03:16:47;51.56;;;49.91;;
2710;SDS011;20721;47.402;8.550;2023-03-04T03:17:48;51.52;;;49.71;;
2710;SDS011;20721;47.402;8.550;2023-03-04T03:18:47;53.54;;;51.44;;
2710;SDS011;20721;47.402;8.550;2023-03-04T03:19:47;52.25;;;50.89;;
2710;SDS011;20721;47.402;8.550;2023-03-04T03:20:47;54.83;;;52.53;;
2710;SDS011;20721;47.402;8.550;2023-03-04T03:21:47;49.24;;;47.67;;
2710;SDS011;20721;47.402;8.550;2023-03-04T03:22:48;52.91;;;51.33;;
2710;SDS011;20721;47.402;8.550;2023-03-04T03:24:47;54.12;;;52.28;;
2710;SDS011;20721;47.402;8.550;2023-03-04T03:25:47;53.14;;;51.57;;
2710;SDS011;20721;47.402;8.550;2023-03-04T03:26:49;53.68;;;51.38;;
2710;SDS011;20721;47.402;8.550;2023-03-04T03:27:47;51.04;;;49.26;;
2710;SDS011;20721;47.402;8.550;2023-03-04T03:30:47;52.51;;;50.18;;
2710;SDS011;20721;47.402;8.550;2023-03-04T03:31:47;52.35;;;50.28;;
2710;SDS011;20721;47.402;8.550;2023-03-04T03:32:48;53.30;;;51.79;;
2710;SDS011;20721;47.402;8.550;2023-03-04T03:33:47;51.13;;;50.17;;
2710;SDS011;20721;47.402;8.550;2023-03-04T03:35:47;52.18;;;50.85;;
2710;SDS011;20721;47.402;8.550;2023-03-04T03:36:47;52.83;;;51.04;;
2710;SDS011;20721;47.402;8.550;2023-03-04T03:38:48;53.07;;;51.84;;
2710;SDS011;20721;47.402;8.550;2023-03-04T03:40:47;51.24;;;49.98;;
2710;SDS011;20721;47.402;8.550;2023-03-04T03:41:47;52.50;;;50.85;;
2710;SDS011;20721;47.402;8.550;2023-03-04T03:42:47;52.36;;;50.47;;
2710;SDS011;20721;47.402;8.550;2023-03-04T03:43:47;53.62;;;51.70;;
2710;SDS011;20721;47.402;8.550;2023-03-04T03:45:47;50.88;;;49.17;;
2710;SDS011;20721;47.402;8.550;2023-03-04T03:46:47;49.88;;;48.54;;
2710;SDS011;20721;47.402;8.550;2023-03-04T03:47:48;51.15;;;49.56;;
2710;SDS011;20721;47.402;8.550;2023-03-04T03:48:47;52.46;;;50.17;;
2710;SDS011;20721;47.402;8.550;2023-03-04T03:50:48;50.65;;;49.48;;
2710;SDS011;20721;47.402;8.550;2023-03-04T03:51:47;53.05;;;51.03;;
2710;SDS011;20721;47.402;8.550;2023-03-04T03:52:47;49.49;;;48.06;;
2710;SDS011;20721;47.402;8.550;2023-03-04T03:53:47;50.80;;;49.19;;
2710;SDS011;20721;47.402;8.550;2023-03-04T03:54:47;51.94;;;49.64;;
2710;SDS011;20721;47.402;8.550;2023-03-04T03:55:48;52.75;;;50.58;;
2710;SDS011;20721;47.402;8.550;2023-03-04T03:56:47;50.41;;;48.63;;
2710;SDS011;20721;47.402;8.550;2023-03-04T03:57:47;51.29;;;49.16;;
2710;SDS011;20721;47.402;8.550;2023-03-04T03:58:47;52.18;;;49.94;;
2710;SDS011;20721;47.402;8.550;2023-03-04T04:00:47;51.42;;;49.39;;
2710;SDS011;20721;47.402;8.550;2023-03-04T04:01:47;51.88;;;49.99;;
2710;SDS011;20721;47.402;8.550;2023-03-04T04:02:48;50.25;;;48.58;;
2710;SDS011;20721;47.402;8.550;2023-03-04T04:03:47;50.41;;;48.98;;
2710;SDS011;20721;47.402;8.550;2023-03-04T04:04:47;52.61;;;50.34;;
2710;SDS011;20721;47.402;8.550;2023-03-04T04:05:47;49.82;;;47.89;;
2710;SDS011;20721;47.402;8.550;2023-03-04T04:08:47;48.58;;;47.00;;
2710;SDS011;20721;47.402;8.550;2023-03-04T04:09:48;53.50;;;51.80;;
2710;SDS011;20721;47.402;8.550;2023-03-04T04:10:47;53.99;;;50.93;;
2710;SDS011;20721;47.402;8.550;2023-03-04T04:11:47;51.66;;;49.69;;
2710;SDS011;20721;47.402;8.550;2023-03-04T04:12:47;50.98;;;48.75;;
2710;SDS011;20721;47.402;8.550;2023-03-04T04:13:49;50.32;;;48.25;;
2710;SDS011;20721;47.402;8.550;2023-03-04T04:15:50;52.70;;;51.56;;
2710;SDS011;20721;47.402;8.550;2023-03-04T04:16:48;51.46;;;50.41;;
2710;SDS011;20721;47.402;8.550;2023-03-04T04:18:48;53.31;;;51.81;;
2710;SDS011;20721;47.402;8.550;2023-03-04T04:19:50;50.82;;;49.14;;
2710;SDS011;20721;47.402;8.550;2023-03-04T04:20:47;49.39;;;48.42;;
2710;SDS011;20721;47.402;8.550;2023-03-04T04:22:47;50.14;;;48.60;;
2710;SDS011;20721;47.402;8.550;2023-03-04T04:23:47;52.86;;;51.32;;
2710;SDS011;20721;47.402;8.550;2023-03-04T04:24:48;52.75;;;50.85;;
2710;SDS011;20721;47.402;8.550;2023-03-04T04:25:48;51.95;;;49.94;;
2710;SDS011;20721;47.402;8.550;2023-03-04T04:26:48;51.55;;;49.62;;
2710;SDS011;20721;47.402;8.550;2023-03-04T04:27:48;50.68;;;49.13;;
2710;SDS011;20721;47.402;8.550;2023-03-04T04:29:48;49.96;;;48.19;;
2710;SDS011;20721;47.402;8.550;2023-03-04T04:30:48;51.54;;;49.66;;
2710;SDS011;20721;47.402;8.550;2023-03-04T04:32:48;49.08;;;47.24;;
2710;SDS011;20721;47.402;8.550;2023-03-04T04:34:48;50.04;;;48.94;;
2710;SDS011;20721;47.402;8.550;2023-03-04T04:35:48;50.04;;;49.02;;
2710;SDS011;20721;47.402;8.550;2023-03-04T04:36:48;49.88;;;48.92;;
2710;SDS011;20721;47.402;8.550;2023-03-04T04:38:47;51.08;;;49.45;;
2710;SDS011;20721;47.402;8.550;2023-03-04T04:41:49;53.38;;;50.82;;
2710;SDS011;20721;47.402;8.550;2023-03-04T04:42:48;49.53;;;47.94;;
2710;SDS011;20721;47.402;8.550;2023-03-04T04:43:48;49.51;;;48.36;;
2710;SDS011;20721;47.402;8.550;2023-03-04T04:44:48;51.05;;;49.19;;
2710;SDS011;20721;47.402;8.550;2023-03-04T04:45:48;49.54;;;48.32;;
2710;SDS011;20721;47.402;8.550;2023-03-04T04:46:48;49.27;;;47.64;;
2710;SDS011;20721;47.402;8.550;2023-03-04T04:47:48;53.03;;;50.01;;
2710;SDS011;20721;47.402;8.550;2023-03-04T04:50:52;48.33;;;46.91;;
2710;SDS011;20721;47.402;8.550;2023-03-04T04:51:48;51.15;;;49.31;;
2710;SDS011;20721;47.402;8.550;2023-03-04T04:52:48;50.97;;;48.90;;
2710;SDS011;20721;47.402;8.550;2023-03-04T04:54:48;52.61;;;50.80;;
2710;SDS011;20721;47.402;8.550;2023-03-04T04:56:48;50.21;;;48.45;;
2710;SDS011;20721;47.402;8.550;2023-03-04T04:57:48;50.84;;;48.66;;
2710;SDS011;20721;47.402;8.550;2023-03-04T04:58:48;50.86;;;49.50;;
2710;SDS011;20721;47.402;8.550;2023-03-04T04:59:48;48.59;;;47.32;;
2710;SDS011;20721;47.402;8.550;2023-03-04T05:00:48;52.65;;;51.14;;
2710;SDS011;20721;47.402;8.550;2023-03-04T05:01:48;49.32;;;47.78;;
2710;SDS011;20721;47.402;8.550;2023-03-04T05:02:48;52.12;;;50.21;;
2710;SDS011;20721;47.402;8.550;2023-03-04T05:03:48;51.07;;;49.02;;
2710;SDS011;20721;47.402;8.550;2023-03-04T05:05:48;49.80;;;48.26;;
2710;SDS011;20721;47.402;8.550;2023-03-04T05:06:49;49.89;;;48.63;;
2710;SDS011;20721;47.402;8.550;2023-03-04T05:07:48;49.39;;;47.54;;
2710;SDS011;20721;47.402;8.550;2023-03-04T05:08:48;48.90;;;47.77;;
2710;SDS011;20721;47.402;8.550;2023-03-04T05:09:48;49.56;;;47.74;;
2710;SDS011;20721;47.402;8.550;2023-03-04T05:10:48;50.66;;;49.40;;
2710;SDS011;20721;47.402;8.550;2023-03-04T05:11:48;50.54;;;48.44;;
2710;SDS011;20721;47.402;8.550;2023-03-04T05:12:48;51.90;;;49.87;;
2710;SDS011;20721;47.402;8.550;2023-03-04T05:13:48;50.29;;;47.98;;
2710;SDS011;20721;47.402;8.550;2023-03-04T05:16:48;50.05;;;48.36;;
2710;SDS011;20721;47.402;8.550;2023-03-04T05:17:48;51.06;;;49.01;;
2710;SDS011;20721;47.402;8.550;2023-03-04T05:18:48;51.31;;;49.87;;
2710;SDS011;20721;47.402;8.550;2023-03-04T05:19:48;50.33;;;48.58;;
2710;SDS011;20721;47.402;8.550;2023-03-04T05:20:50;49.49;;;47.95;;
2710;SDS011;20721;47.402;8.550;2023-03-04T05:21:48;51.37;;;49.46;;
2710;SDS011;20721;47.402;8.550;2023-03-04T05:22:48;50.49;;;48.33;;
2710;SDS011;20721;47.402;8.550;2023-03-04T05:24:48;49.58;;;47.88;;
2710;SDS011;20721;47.402;8.550;2023-03-04T05:26:48;49.23;;;47.84;;
2710;SDS011;20721;47.402;8.550;2023-03-04T05:27:48;49.17;;;47.37;;
2710;SDS011;20721;47.402;8.550;2023-03-04T05:28:48;49.94;;;48.68;;
2710;SDS011;20721;47.402;8.550;2023-03-04T05:29:48;51.79;;;49.38;;
2710;SDS011;20721;47.402;8.550;2023-03-04T05:30:49;52.38;;;49.84;;
2710;SDS011;20721;47.402;8.550;2023-03-04T05:31:48;51.10;;;49.67;;
2710;SDS011;20721;47.402;8.550;2023-03-04T05:32:48;50.53;;;48.74;;
2710;SDS011;20721;47.402;8.550;2023-03-04T05:34:48;50.97;;;48.99;;
2710;SDS011;20721;47.402;8.550;2023-03-04T05:35:49;51.59;;;49.34;;
2710;SDS011;20721;47.402;8.550;2023-03-04T05:36:48;50.75;;;49.21;;
2710;SDS011;20721;47.402;8.550;2023-03-04T05:38:48;50.83;;;49.06;;
2710;SDS011;20721;47.402;8.550;2023-03-04T05:39:48;49.97;;;48.29;;
2710;SDS011;20721;47.402;8.550;2023-03-04T05:40:48;49.94;;;48.26;;
2710;SDS011;20721;47.402;8.550;2023-03-04T05:41:48;49.21;;;47.88;;
2710;SDS011;20721;47.402;8.550;2023-03-04T05:42:48;52.68;;;50.18;;
2710;SDS011;20721;47.402;8.550;2023-03-04T05:43:51;49.98;;;48.54;;
2710;SDS011;20721;47.402;8.550;2023-03-04T05:45:48;50.97;;;48.71;;
2710;SDS011;20721;47.402;8.550;2023-03-04T05:46:48;50.27;;;48.98;;
2710;SDS011;20721;47.402;8.550;2023-03-04T05:47:48;51.04;;;49.70;;
2710;SDS011;20721;47.402;8.550;2023-03-04T05:48:48;52.30;;;50.09;;
2710;SDS011;20721;47.402;8.550;2023-03-04T05:49:48;50.24;;;48.94;;
2710;SDS011;20721;47.402;8.550;2023-03-04T05:50:56;49.85;;;48.67;;
2710;SDS011;20721;47.402;8.550;2023-03-04T05:53:50;50.07;;;48.28;;
2710;SDS011;20721;47.402;8.550;2023-03-04T05:54:48;50.60;;;49.25;;
2710;SDS011;20721;47.402;8.550;2023-03-04T05:55:48;52.24;;;50.23;;
2710;SDS011;20721;47.402;8.550;2023-03-04T05:56:48;52.54;;;49.35;;
2710;SDS011;20721;47.402;8.550;2023-03-04T05:57:48;50.80;;;48.74;;
2710;SDS011;20721;47.402;8.550;2023-03-04T05:58:48;50.79;;;49.49;;
2710;SDS011;20721;47.402;8.550;2023-03-04T05:59:48;50.92;;;48.92;;
2710;SDS011;20721;47.402;8.550;2023-03-04T06:01:48;51.17;;;48.90;;
2710;SDS011;20721;47.402;8.550;2023-03-04T06:02:48;49.72;;;47.28;;
2710;SDS011;20721;47.402;8.550;2023-03-04T06:06:48;50.28;;;47.97;;
2710;SDS011;20721;47.402;8.550;2023-03-04T06:07:48;49.75;;;48.06;;
2710;SDS011;20721;47.402;8.550;2023-03-04T06:08:48;50.37;;;48.74;;
2710;SDS011;20721;47.402;8.550;2023-03-04T06:09:48;50.87;;;48.87;;
2710;SDS011;20721;47.402;8.550;2023-03-04T06:10:51;52.84;;;50.32;;
2710;SDS011;20721;47.402;8.550;2023-03-04T06:12:48;51.82;;;50.04;;
2710;SDS011;20721;47.402;8.550;2023-03-04T06:13:49;50.15;;;48.21;;
2710;SDS011;20721;47.402;8.550;2023-03-04T06:14:48;50.42;;;48.99;;
2710;SDS011;20721;47.402;8.550;2023-03-04T06:15:52;53.56;;;51.26;;
2710;SDS011;20721;47.402;8.550;2023-03-04T06:16:48;50.23;;;48.05;;
2710;SDS011;20721;47.402;8.550;2023-03-04T06:17:51;50.65;;;48.99;;
2710;SDS011;20721;47.402;8.550;2023-03-04T06:18:48;51.18;;;49.54;;
2710;SDS011;20721;47.402;8.550;2023-03-04T06:19:48;51.37;;;49.19;;
2710;SDS011;20721;47.402;8.550;2023-03-04T06:21:48;51.09;;;48.98;;
2710;SDS011;20721;47.402;8.550;2023-03-04T06:22:48;50.55;;;48.08;;
2710;SDS011;20721;47.402;8.550;2023-03-04T06:23:48;52.01;;;49.73;;
2710;SDS011;20721;47.402;8.550;2023-03-04T06:24:48;49.67;;;47.46;;
2710;SDS011;20721;47.402;8.550;2023-03-04T06:26:48;52.80;;;50.87;;
2710;SDS011;20721;47.402;8.550;2023-03-04T06:27:48;51.30;;;49.51;;
2710;SDS011;20721;47.402;8.550;2023-03-04T06:28:48;51.65;;;49.60;;
2710;SDS011;20721;47.402;8.550;2023-03-04T06:29:48;48.54;;;47.14;;
2710;SDS011;20721;47.402;8.550;2023-03-04T06:30:50;51.33;;;48.95;;
2710;SDS011;20721;47.402;8.550;2023-03-04T06:31:50;53.46;;;50.36;;
2710;SDS011;20721;47.402;8.550;2023-03-04T06:32:49;50.80;;;49.03;;
2710;SDS011;20721;47.402;8.550;2023-03-04T06:33:48;48.77;;;47.28;;
2710;SDS011;20721;47.402;8.550;2023-03-04T06:34:48;51.66;;;49.32;;
2710;SDS011;20721;47.402;8.550;2023-03-04T06:35:52;52.13;;;49.99;;
2710;SDS011;20721;47.402;8.550;2023-03-04T06:36:48;52.70;;;50.07;;
2710;SDS011;20721;47.402;8.550;2023-03-04T06:37:48;53.23;;;50.90;;
2710;SDS011;20721;47.402;8.550;2023-03-04T06:38:48;50.97;;;48.76;;
2710;SDS011;20721;47.402;8.550;2023-03-04T06:39:48;49.82;;;48.17;;
2710;SDS011;20721;47.402;8.550;2023-03-04T06:40:48;49.58;;;48.25;;
2710;SDS011;20721;47.402;8.550;2023-03-04T06:42:49;51.06;;;48.51;;
2710;SDS011;20721;47.402;8.550;2023-03-04T06:44:48;49.61;;;47.90;;
2710;SDS011;20721;47.402;8.550;2023-03-04T06:45:48;48.36;;;46.45;;
2710;SDS011;20721;47.402;8.550;2023-03-04T06:46:48;48.75;;;47.11;;
2710;SDS011;20721;47.402;8.550;2023-03-04T06:47:48;49.43;;;47.67;;
2710;SDS011;20721;47.402;8.550;2023-03-04T06:48:48;48.67;;;47.33;;
2710;SDS011;20721;47.402;8.550;2023-03-04T06:49:48;50.35;;;48.36;;
2710;SDS011;20721;47.402;8.550;2023-03-04T06:50:48;50.70;;;49.31;;
2710;SDS011;20721;47.402;8.550;2023-03-04T06:51:48;50.89;;;48.73;;
2710;SDS011;20721;47.402;8.550;2023-03-04T06:52:48;50.46;;;48.34;;
2710;SDS011;20721;47.402;8.550;2023-03-04T06:53:49;48.02;;;46.18;;
2710;SDS011;20721;47.402;8.550;2023-03-04T06:54:48;49.22;;;47.31;;
2710;SDS011;20721;47.402;8.550;2023-03-04T06:55:48;48.78;;;46.54;;
2710;SDS011;20721;47.402;8.550;2023-03-04T06:56:48;50.47;;;48.45;;
2710;SDS011;20721;47.402;8.550;2023-03-04T06:57:48;50.33;;;48.35;;
2710;SDS011;20721;47.402;8.550;2023-03-04T06:58:48;49.85;;;48.47;;
2710;SDS011;20721;47.402;8.550;2023-03-04T06:59:48;51.45;;;49.51;;
2710;SDS011;20721;47.402;8.550;2023-03-04T07:00:48;51.56;;;49.46;;
2710;SDS011;20721;47.402;8.550;2023-03-04T07:01:48;50.27;;;48.89;;
2710;SDS011;20721;47.402;8.550;2023-03-04T07:02:48;51.66;;;49.95;;
2710;SDS011;20721;47.402;8.550;2023-03-04T07:03:49;51.17;;;49.50;;
2710;SDS011;20721;47.402;8.550;2023-03-04T07:04:49;53.67;;;50.93;;
2710;SDS011;20721;47.402;8.550;2023-03-04T07:05:48;48.37;;;46.41;;
2710;SDS011;20721;47.402;8.550;2023-03-04T07:06:48;50.69;;;48.97;;
2710;SDS011;20721;47.402;8.550;2023-03-04T07:07:48;52.97;;;50.58;;
2710;SDS011;20721;47.402;8.550;2023-03-04T07:08:48;51.30;;;49.95;;
2710;SDS011;20721;47.402;8.550;2023-03-04T07:09:48;51.83;;;49.66;;
2710;SDS011;20721;47.402;8.550;2023-03-04T07:10:48;52.14;;;49.91;;